Air Navigation Services of Czech Republic
Airport: LKPR Updated:  25.07.2017 12:08:11  UTC
 METAR LKPR 25.07. 12:00 ...
METAR LKPR 251200Z 25016KT 9999 SCT036 18/09 Q1004 NOSIG RMK REG QNH 1000=
 TAF LKPR 25.07. 11:00 ...
TAF LKPR 251100Z 2512/2618 24014KT 9999 SCT035      TEMPO 2512/2518 26018G30KT 9999 -SHRA BKN030      BECMG 2521/2600 BKN030      TEMPO 2600/2615 8000 -RA BKN023      BECMG 2615/2618 29012KT 5000 RA SCT010 BKN017=